sensor_id;sensor_type;location;lat;lon;timestamp;pressure;altitude;pressure_sealevel;temperature;humidity
75317;BME280;63913;51.492;10.368;2023-06-22T00:01:16;98710.84;;;19.56;82.46
75317;BME280;63913;51.492;10.368;2023-06-22T00:03:42;98713.53;;;19.49;82.44
75317;BME280;63913;51.492;10.368;2023-06-22T00:06:07;98719.66;;;19.41;82.38
75317;BME280;63913;51.492;10.368;2023-06-22T00:08:32;98722.25;;;19.44;82.57
75317;BME280;63913;51.492;10.368;2023-06-22T00:10:58;98724.88;;;19.41;82.60
75317;BME280;63913;51.492;10.368;2023-06-22T00:13:23;98738.84;;;19.37;82.52
75317;BME280;63913;51.492;10.368;2023-06-22T00:15:48;98754.50;;;19.31;82.88
75317;BME280;63913;51.492;10.368;2023-06-22T00:18:14;98752.78;;;19.30;82.78
75317;BME280;63913;51.492;10.368;2023-06-22T00:20:41;98758.91;;;19.26;83.12
75317;BME280;63913;51.492;10.368;2023-06-22T00:23:07;98757.22;;;19.21;82.79
75317;BME280;63913;51.492;10.368;2023-06-22T00:25:37;98752.03;;;19.19;83.24
75317;BME280;63913;51.492;10.368;2023-06-22T00:28:03;98756.38;;;19.19;82.54
75317;BME280;63913;51.492;10.368;2023-06-22T00:30:31;98747.69;;;19.20;83.04
75317;BME280;63913;51.492;10.368;2023-06-22T00:32:57;98739.84;;;19.21;82.93
75317;BME280;63913;51.492;10.368;2023-06-22T00:35:22;98737.19;;;19.24;82.31
75317;BME280;63913;51.492;10.368;2023-06-22T00:37:47;98732.97;;;19.10;82.30
75317;BME280;63913;51.492;10.368;2023-06-22T00:40:13;98723.53;;;18.95;82.35
75317;BME280;63913;51.492;10.368;2023-06-22T00:42:40;98720.94;;;18.96;82.74
75317;BME280;63913;51.492;10.368;2023-06-22T00:45:07;98714.00;;;18.91;82.48
75317;BME280;63913;51.492;10.368;2023-06-22T00:47:36;98711.38;;;18.95;83.04
75317;BME280;63913;51.492;10.368;2023-06-22T00:50:06;98709.72;;;18.84;83.56
75317;BME280;63913;51.492;10.368;2023-06-22T00:52:32;98710.59;;;18.83;82.99
75317;BME280;63913;51.492;10.368;2023-06-22T00:55:01;98707.16;;;18.81;83.20
75317;BME280;63913;51.492;10.368;2023-06-22T00:57:28;98713.19;;;18.86;82.91
75317;BME280;63913;51.492;10.368;2023-06-22T00:59:54;98713.19;;;18.81;83.09
75317;BME280;63913;51.492;10.368;2023-06-22T01:02:20;98717.59;;;18.75;83.21
75317;BME280;63913;51.492;10.368;2023-06-22T01:04:46;98698.47;;;18.79;83.15
75317;BME280;63913;51.492;10.368;2023-06-22T01:09:59;98705.47;;;18.71;83.57
75317;BME280;63913;51.492;10.368;2023-06-22T01:12:30;98696.75;;;18.78;83.07
75317;BME280;63913;51.492;10.368;2023-06-22T01:15:11;98688.06;;;18.76;82.89
75317;BME280;63913;51.492;10.368;2023-06-22T01:17:40;98683.88;;;18.52;83.78
75317;BME280;63913;51.492;10.368;2023-06-22T01:20:10;98683.84;;;18.64;83.07
75317;BME280;63913;51.492;10.368;2023-06-22T01:25:20;98677.75;;;18.63;83.68
75317;BME280;63913;51.492;10.368;2023-06-22T01:27:56;98675.16;;;18.57;83.84
75317;BME280;63913;51.492;10.368;2023-06-22T01:30:27;98675.22;;;18.48;83.83
75317;BME280;63913;51.492;10.368;2023-06-22T01:32:56;98685.66;;;18.44;84.01
75317;BME280;63913;51.492;10.368;2023-06-22T01:35:24;98687.38;;;18.46;83.97
75317;BME280;63913;51.492;10.368;2023-06-22T01:37:50;98679.50;;;18.57;83.23
75317;BME280;63913;51.492;10.368;2023-06-22T01:40:18;98669.13;;;18.49;83.71
75317;BME280;63913;51.492;10.368;2023-06-22T01:42:45;98660.53;;;18.38;83.52
75317;BME280;63913;51.492;10.368;2023-06-22T01:45:11;98652.63;;;18.50;83.23
75317;BME280;63913;51.492;10.368;2023-06-22T01:47:38;98650.84;;;18.58;83.00
75317;BME280;63913;51.492;10.368;2023-06-22T01:50:04;98647.38;;;18.61;82.81
75317;BME280;63913;51.492;10.368;2023-06-22T01:52:32;98651.72;;;18.57;82.63
75317;BME280;63913;51.492;10.368;2023-06-22T01:54:59;98646.59;;;18.45;83.19
75317;BME280;63913;51.492;10.368;2023-06-22T01:57:25;98643.94;;;18.53;83.63
75317;BME280;63913;51.492;10.368;2023-06-22T02:00:04;98641.34;;;18.51;83.16
75317;BME280;63913;51.492;10.368;2023-06-22T02:02:55;98644.00;;;18.44;83.67
75317;BME280;63913;51.492;10.368;2023-06-22T02:05:23;98631.84;;;18.43;83.98
75317;BME280;63913;51.492;10.368;2023-06-22T02:07:58;98640.50;;;18.46;83.79
75317;BME280;63913;51.492;10.368;2023-06-22T02:10:26;98641.31;;;18.53;83.51
75317;BME280;63913;51.492;10.368;2023-06-22T02:12:57;98638.69;;;18.62;83.37
75317;BME280;63913;51.492;10.368;2023-06-22T02:15:23;98644.81;;;18.52;83.59
75317;BME280;63913;51.492;10.368;2023-06-22T02:17:52;98640.44;;;18.55;83.17
75317;BME280;63913;51.492;10.368;2023-06-22T02:20:17;98644.78;;;18.55;83.70
75317;BME280;63913;51.492;10.368;2023-06-22T02:22:43;98644.81;;;18.52;84.02
75317;BME280;63913;51.492;10.368;2023-06-22T02:25:10;98656.06;;;18.61;84.25
75317;BME280;63913;51.492;10.368;2023-06-22T02:27:35;98663.00;;;18.64;84.15
75317;BME280;63913;51.492;10.368;2023-06-22T02:30:00;98662.06;;;18.68;84.45
75317;BME280;63913;51.492;10.368;2023-06-22T02:32:26;98662.13;;;18.59;84.19
75317;BME280;63913;51.492;10.368;2023-06-22T02:34:52;98676.91;;;18.51;85.05
75317;BME280;63913;51.492;10.368;2023-06-22T02:37:18;98682.16;;;18.48;85.22
75317;BME280;63913;51.492;10.368;2023-06-22T02:39:43;98680.44;;;18.48;85.19
75317;BME280;63913;51.492;10.368;2023-06-22T02:42:09;98689.06;;;18.52;85.02
75317;BME280;63913;51.492;10.368;2023-06-22T02:44:36;98704.72;;;18.56;85.28
75317;BME280;63913;51.492;10.368;2023-06-22T02:47:01;98712.50;;;18.61;84.44
75317;BME280;63913;51.492;10.368;2023-06-22T02:49:27;98714.28;;;18.47;85.20
75317;BME280;63913;51.492;10.368;2023-06-22T02:51:52;98718.59;;;18.49;84.92
75317;BME280;63913;51.492;10.368;2023-06-22T02:54:20;98723.84;;;18.42;85.69
75317;BME280;63913;51.492;10.368;2023-06-22T02:56:47;98730.75;;;18.56;85.32
75317;BME280;63913;51.492;10.368;2023-06-22T02:59:13;98725.53;;;18.58;85.10
75317;BME280;63913;51.492;10.368;2023-06-22T03:01:38;98735.09;;;18.51;85.35
75317;BME280;63913;51.492;10.368;2023-06-22T03:04:20;98741.19;;;18.43;86.12
75317;BME280;63913;51.492;10.368;2023-06-22T03:06:46;98738.63;;;18.38;86.03
75317;BME280;63913;51.492;10.368;2023-06-22T03:09:16;98748.19;;;18.38;86.48
75317;BME280;63913;51.492;10.368;2023-06-22T03:11:42;98751.56;;;18.52;86.12
75317;BME280;63913;51.492;10.368;2023-06-22T03:14:08;98757.69;;;18.48;86.13
75317;BME280;63913;51.492;10.368;2023-06-22T03:16:33;98748.97;;;18.52;86.02
75317;BME280;63913;51.492;10.368;2023-06-22T03:18:59;98756.81;;;18.56;85.66
75317;BME280;63913;51.492;10.368;2023-06-22T03:21:28;98748.97;;;18.61;86.17
75317;BME280;63913;51.492;10.368;2023-06-22T03:23:54;98755.91;;;18.59;86.26
75317;BME280;63913;51.492;10.368;2023-06-22T03:26:19;98763.69;;;18.65;86.21
75317;BME280;63913;51.492;10.368;2023-06-22T03:28:45;98760.28;;;18.46;86.89
75317;BME280;63913;51.492;10.368;2023-06-22T03:31:10;98751.63;;;18.41;87.22
75317;BME280;63913;51.492;10.368;2023-06-22T03:33:38;98752.47;;;18.46;87.28
75317;BME280;63913;51.492;10.368;2023-06-22T03:36:04;98753.31;;;18.56;86.74
75317;BME280;63913;51.492;10.368;2023-06-22T03:38:29;98753.31;;;18.51;86.64
75317;BME280;63913;51.492;10.368;2023-06-22T03:40:56;98742.84;;;18.65;86.63
75317;BME280;63913;51.492;10.368;2023-06-22T03:43:23;98737.63;;;18.68;86.62
75317;BME280;63913;51.492;10.368;2023-06-22T03:45:48;98728.88;;;18.75;86.74
75317;BME280;63913;51.492;10.368;2023-06-22T03:48:13;98727.22;;;18.65;86.98
75317;BME280;63913;51.492;10.368;2023-06-22T03:50:39;98726.28;;;18.74;87.05
75317;BME280;63913;51.492;10.368;2023-06-22T03:53:04;98712.38;;;18.79;86.54
75317;BME280;63913;51.492;10.368;2023-06-22T03:55:29;98713.25;;;18.75;86.92
75317;BME280;63913;51.492;10.368;2023-06-22T03:57:55;98717.53;;;18.85;86.72
75317;BME280;63913;51.492;10.368;2023-06-22T04:00:23;98705.38;;;18.87;86.96
75317;BME280;63913;51.492;10.368;2023-06-22T04:02:48;98707.06;;;18.91;87.06
75317;BME280;63913;51.492;10.368;2023-06-22T04:05:13;98699.22;;;18.96;87.14
75317;BME280;63913;51.492;10.368;2023-06-22T04:07:39;98700.03;;;19.01;87.15
75317;BME280;63913;51.492;10.368;2023-06-22T04:10:05;98687.88;;;19.01;87.23
75317;BME280;63913;51.492;10.368;2023-06-22T04:12:30;98688.69;;;19.08;87.45
75317;BME280;63913;51.492;10.368;2023-06-22T04:14:56;98683.38;;;19.17;87.73
75317;BME280;63913;51.492;10.368;2023-06-22T04:17:21;98677.22;;;19.24;88.00
75317;BME280;63913;51.492;10.368;2023-06-22T04:19:50;98669.31;;;19.32;88.26
75317;BME280;63913;51.492;10.368;2023-06-22T04:22:15;98667.50;;;19.40;88.28
75317;BME280;63913;51.492;10.368;2023-06-22T04:24:40;98657.94;;;19.42;88.64
75317;BME280;63913;51.492;10.368;2023-06-22T04:27:06;98657.94;;;19.42;88.76
75317;BME280;63913;51.492;10.368;2023-06-22T04:29:31;98663.03;;;19.56;87.78
75317;BME280;63913;51.492;10.368;2023-06-22T04:31:57;98662.13;;;19.60;88.14
75317;BME280;63913;51.492;10.368;2023-06-22T04:34:24;98660.31;;;19.65;87.56
75317;BME280;63913;51.492;10.368;2023-06-22T04:36:53;98661.97;;;19.72;87.55
75317;BME280;63913;51.492;10.368;2023-06-22T04:39:18;98655.84;;;19.74;87.55
75317;BME280;63913;51.492;10.368;2023-06-22T04:41:44;98642.75;;;19.79;87.31
75317;BME280;63913;51.492;10.368;2023-06-22T04:44:14;98641.88;;;19.78;87.61
75317;BME280;63913;51.492;10.368;2023-06-22T04:46:53;98647.03;;;19.86;87.15
75317;BME280;63913;51.492;10.368;2023-06-22T04:49:26;98640.03;;;19.88;86.98
75317;BME280;63913;51.492;10.368;2023-06-22T04:52:10;98635.59;;;19.95;85.90
75317;BME280;63913;51.492;10.368;2023-06-22T04:54:37;98624.22;;;20.00;86.14
75317;BME280;63913;51.492;10.368;2023-06-22T04:57:05;98625.91;;;20.03;85.59
75317;BME280;63913;51.492;10.368;2023-06-22T04:59:35;98624.13;;;20.06;85.88
75317;BME280;63913;51.492;10.368;2023-06-22T05:02:02;98631.06;;;20.09;85.24
75317;BME280;63913;51.492;10.368;2023-06-22T05:04:29;98633.63;;;20.12;84.82
75317;BME280;63913;51.492;10.368;2023-06-22T05:07:01;98633.56;;;20.16;84.54
75317;BME280;63913;51.492;10.368;2023-06-22T05:09:28;98630.91;;;20.19;84.93
75317;BME280;63913;51.492;10.368;2023-06-22T05:11:53;98636.16;;;20.18;84.70
75317;BME280;63913;51.492;10.368;2023-06-22T05:14:19;98641.31;;;20.21;84.39
75317;BME280;63913;51.492;10.368;2023-06-22T05:16:45;98650.03;;;20.22;84.70
75317;BME280;63913;51.492;10.368;2023-06-22T05:19:12;98656.13;;;20.20;84.79
75317;BME280;63913;51.492;10.368;2023-06-22T05:21:38;98657.09;;;20.15;84.71
75317;BME280;63913;51.492;10.368;2023-06-22T05:24:03;98662.28;;;20.16;84.97
75317;BME280;63913;51.492;10.368;2023-06-22T05:26:30;98669.28;;;20.14;85.27
75317;BME280;63913;51.492;10.368;2023-06-22T05:28:57;98670.44;;;19.92;85.35
75317;BME280;63913;51.492;10.368;2023-06-22T05:31:23;98663.78;;;19.65;86.75
75317;BME280;63913;51.492;10.368;2023-06-22T05:33:50;98672.66;;;19.52;87.59
75317;BME280;63913;51.492;10.368;2023-06-22T05:36:16;98667.47;;;19.48;88.00
75317;BME280;63913;51.492;10.368;2023-06-22T05:38:41;98670.91;;;19.47;87.62
75317;BME280;63913;51.492;10.368;2023-06-22T05:41:07;98671.78;;;19.50;88.27
75317;BME280;63913;51.492;10.368;2023-06-22T05:43:33;98669.19;;;19.50;88.64
75317;BME280;63913;51.492;10.368;2023-06-22T05:46:00;98661.34;;;19.53;88.25
75317;BME280;63913;51.492;10.368;2023-06-22T05:48:26;98667.44;;;19.52;88.20
75317;BME280;63913;51.492;10.368;2023-06-22T05:50:52;98671.69;;;19.59;87.81
75317;BME280;63913;51.492;10.368;2023-06-22T05:53:17;98661.28;;;19.58;87.92
75317;BME280;63913;51.492;10.368;2023-06-22T05:55:42;98661.25;;;19.59;88.20
75317;BME280;63913;51.492;10.368;2023-06-22T05:58:08;98662.06;;;19.66;88.48
75317;BME280;63913;51.492;10.368;2023-06-22T06:00:34;98651.53;;;19.73;88.13
75317;BME280;63913;51.492;10.368;2023-06-22T06:03:00;98656.75;;;19.72;88.22
75317;BME280;63913;51.492;10.368;2023-06-22T06:05:33;98645.44;;;19.74;87.59
75317;BME280;63913;51.492;10.368;2023-06-22T06:08:00;98650.66;;;19.73;88.12
75317;BME280;63913;51.492;10.368;2023-06-22T06:10:25;98652.38;;;19.74;88.39
75317;BME280;63913;51.492;10.368;2023-06-22T06:12:52;98647.91;;;19.85;87.89
75317;BME280;63913;51.492;10.368;2023-06-22T06:15:17;98652.94;;;19.99;87.09
75317;BME280;63913;51.492;10.368;2023-06-22T06:17:52;98644.91;;;20.14;86.79
75317;BME280;63913;51.492;10.368;2023-06-22T06:20:22;98643.81;;;20.30;85.98
75317;BME280;63913;51.492;10.368;2023-06-22T06:22:48;98654.94;;;20.44;85.19
75317;BME280;63913;51.492;10.368;2023-06-22T06:25:18;98665.25;;;20.55;84.32
75317;BME280;63913;51.492;10.368;2023-06-22T06:27:48;98655.56;;;20.62;84.02
75317;BME280;63913;51.492;10.368;2023-06-22T06:30:16;98658.97;;;20.67;81.82
75317;BME280;63913;51.492;10.368;2023-06-22T06:32:42;98651.88;;;20.75;82.05
75317;BME280;63913;51.492;10.368;2023-06-22T06:35:09;98657.03;;;20.78;81.66
75317;BME280;63913;51.492;10.368;2023-06-22T06:37:37;98660.47;;;20.81;81.83
75317;BME280;63913;51.492;10.368;2023-06-22T06:40:04;98653.44;;;20.85;81.19
75317;BME280;63913;51.492;10.368;2023-06-22T06:42:42;98656.88;;;20.88;80.34
75317;BME280;63913;51.492;10.368;2023-06-22T06:45:16;98653.28;;;20.94;80.64
75317;BME280;63913;51.492;10.368;2023-06-22T06:47:42;98656.72;;;20.99;80.78
75317;BME280;63913;51.492;10.368;2023-06-22T06:50:08;98653.22;;;20.99;79.87
75317;BME280;63913;51.492;10.368;2023-06-22T06:52:34;98643.72;;;20.93;80.22
75317;BME280;63913;51.492;10.368;2023-06-22T06:54:59;98647.16;;;20.97;80.74
75317;BME280;63913;51.492;10.368;2023-06-22T06:57:25;98649.69;;;21.01;80.45
75317;BME280;63913;51.492;10.368;2023-06-22T06:59:57;98642.72;;;21.00;80.98
75317;BME280;63913;51.492;10.368;2023-06-22T07:02:23;98643.53;;;21.05;80.87
75317;BME280;63913;51.492;10.368;2023-06-22T07:04:49;98643.38;;;21.13;80.35
75317;BME280;63913;51.492;10.368;2023-06-22T07:07:15;98645.91;;;21.20;80.02
75317;BME280;63913;51.492;10.368;2023-06-22T07:09:40;98654.59;;;21.22;79.20
75317;BME280;63913;51.492;10.368;2023-06-22T07:12:06;98647.53;;;21.26;79.11
75317;BME280;63913;51.492;10.368;2023-06-22T07:14:32;98644.03;;;21.27;79.93
75317;BME280;63913;51.492;10.368;2023-06-22T07:16:58;98643.97;;;21.31;79.79
75317;BME280;63913;51.492;10.368;2023-06-22T07:19:27;98644.78;;;21.33;79.29
75317;BME280;63913;51.492;10.368;2023-06-22T07:21:54;98643.00;;;21.36;78.19
75317;BME280;63913;51.492;10.368;2023-06-22T07:24:23;98639.44;;;21.40;77.65
75317;BME280;63913;51.492;10.368;2023-06-22T07:26:50;98639.31;;;21.46;78.26
75317;BME280;63913;51.492;10.368;2023-06-22T07:29:18;98637.56;;;21.46;77.48
75317;BME280;63913;51.492;10.368;2023-06-22T07:31:45;98640.09;;;21.51;78.80
75317;BME280;63913;51.492;10.368;2023-06-22T07:34:10;98640.00;;;21.55;78.74
75317;BME280;63913;51.492;10.368;2023-06-22T07:36:36;98635.53;;;21.60;78.18
75317;BME280;63913;51.492;10.368;2023-06-22T07:39:04;98639.78;;;21.66;77.45
75317;BME280;63913;51.492;10.368;2023-06-22T07:41:31;98643.16;;;21.73;78.03
75317;BME280;63913;51.492;10.368;2023-06-22T07:43:56;98645.72;;;21.74;77.99
75317;BME280;63913;51.492;10.368;2023-06-22T07:46:22;98642.16;;;21.80;77.03
75317;BME280;63913;51.492;10.368;2023-06-22T07:48:48;98642.91;;;21.85;78.08
75317;BME280;63913;51.492;10.368;2023-06-22T07:51:13;98641.84;;;21.93;77.42
75317;BME280;63913;51.492;10.368;2023-06-22T07:53:43;98640.88;;;21.99;76.59
75317;BME280;63913;51.492;10.368;2023-06-22T07:56:12;98644.22;;;22.05;77.65
75317;BME280;63913;51.492;10.368;2023-06-22T07:58:38;98636.16;;;22.15;77.29
75317;BME280;63913;51.492;10.368;2023-06-22T08:01:03;98636.06;;;22.21;75.79
75317;BME280;63913;51.492;10.368;2023-06-22T08:03:29;98632.47;;;22.25;76.46
75317;BME280;63913;51.492;10.368;2023-06-22T08:05:54;98628.22;;;22.19;73.95
75317;BME280;63913;51.492;10.368;2023-06-22T08:08:20;98632.50;;;22.22;74.12
75317;BME280;63913;51.492;10.368;2023-06-22T08:10:45;98634.34;;;22.20;73.83
75317;BME280;63913;51.492;10.368;2023-06-22T08:13:11;98629.84;;;22.25;73.61
75317;BME280;63913;51.492;10.368;2023-06-22T08:15:36;98634.94;;;22.31;73.93
75317;BME280;63913;51.492;10.368;2023-06-22T08:18:02;98632.13;;;22.38;73.82
75317;BME280;63913;51.492;10.368;2023-06-22T08:20:27;98635.38;;;22.50;73.08
75317;BME280;63913;51.492;10.368;2023-06-22T08:22:54;98629.91;;;22.60;73.21
75317;BME280;63913;51.492;10.368;2023-06-22T08:25:20;98625.25;;;22.71;72.32
75317;BME280;63913;51.492;10.368;2023-06-22T08:27:47;98623.13;;;22.87;73.01
75317;BME280;63913;51.492;10.368;2023-06-22T08:30:15;98626.88;;;23.11;72.55
75317;BME280;63913;51.492;10.368;2023-06-22T08:32:41;98625.53;;;23.29;71.99
75317;BME280;63913;51.492;10.368;2023-06-22T08:35:07;98628.56;;;23.46;70.11
75317;BME280;63913;51.492;10.368;2023-06-22T08:37:34;98612.22;;;23.69;69.96
75317;BME280;63913;51.492;10.368;2023-06-22T08:40:02;98618.66;;;23.88;68.64
75317;BME280;63913;51.492;10.368;2023-06-22T08:42:31;98610.94;;;24.11;69.04
75317;BME280;63913;51.492;10.368;2023-06-22T08:44:56;98606.97;;;24.27;67.18
75317;BME280;63913;51.492;10.368;2023-06-22T08:47:22;98616.91;;;24.46;66.90
75317;BME280;63913;51.492;10.368;2023-06-22T08:49:48;98606.78;;;24.61;66.32
75317;BME280;63913;51.492;10.368;2023-06-22T08:52:14;98605.41;;;24.76;65.22
75317;BME280;63913;51.492;10.368;2023-06-22T08:54:40;98605.16;;;24.84;64.73
75317;BME280;63913;51.492;10.368;2023-06-22T08:57:05;98593.41;;;24.95;65.84
75317;BME280;63913;51.492;10.368;2023-06-22T08:59:31;98590.00;;;25.17;65.08
75317;BME280;63913;51.492;10.368;2023-06-22T09:01:57;98587.09;;;25.24;65.09
75317;BME280;63913;51.492;10.368;2023-06-22T09:04:24;98589.63;;;25.27;62.88
75317;BME280;63913;51.492;10.368;2023-06-22T09:06:49;98593.69;;;25.37;63.81
75317;BME280;63913;51.492;10.368;2023-06-22T09:09:17;98587.19;;;25.46;63.42
75317;BME280;63913;51.492;10.368;2023-06-22T09:11:43;98588.38;;;25.62;62.53
75317;BME280;63913;51.492;10.368;2023-06-22T09:14:10;98583.78;;;25.44;61.79
75317;BME280;63913;51.492;10.368;2023-06-22T09:16:36;98583.50;;;25.52;62.33
75317;BME280;63913;51.492;10.368;2023-06-22T09:19:01;98585.50;;;25.45;62.63
75317;BME280;63913;51.492;10.368;2023-06-22T09:21:27;98578.28;;;25.50;62.33
75317;BME280;63913;51.492;10.368;2023-06-22T09:23:52;98570.47;;;25.72;63.50
75317;BME280;63913;51.492;10.368;2023-06-22T09:26:18;98564.69;;;25.86;62.91
75317;BME280;63913;51.492;10.368;2023-06-22T09:28:44;98569.31;;;25.79;62.08
75317;BME280;63913;51.492;10.368;2023-06-22T09:31:09;98565.53;;;25.63;62.69
75317;BME280;63913;51.492;10.368;2023-06-22T09:33:39;98558.78;;;25.79;62.67
75317;BME280;63913;51.492;10.368;2023-06-22T09:36:06;98551.84;;;26.00;61.14
75317;BME280;63913;51.492;10.368;2023-06-22T09:38:35;98546.16;;;26.10;61.24
75317;BME280;63913;51.492;10.368;2023-06-22T09:41:01;98538.91;;;26.15;61.21
75317;BME280;63913;51.492;10.368;2023-06-22T09:43:27;98554.25;;;26.28;61.44
75317;BME280;63913;51.492;10.368;2023-06-22T09:45:52;98542.47;;;26.36;61.03
75317;BME280;63913;51.492;10.368;2023-06-22T09:48:18;98547.75;;;26.36;60.46
75317;BME280;63913;51.492;10.368;2023-06-22T09:50:43;98552.00;;;26.40;60.48
75317;BME280;63913;51.492;10.368;2023-06-22T09:53:09;98542.84;;;26.49;59.17
75317;BME280;63913;51.492;10.368;2023-06-22T09:55:34;98543.34;;;26.58;59.73
75317;BME280;63913;51.492;10.368;2023-06-22T09:57:59;98542.91;;;26.47;59.81
75317;BME280;63913;51.492;10.368;2023-06-22T10:00:25;98543.88;;;26.45;58.83
75317;BME280;63913;51.492;10.368;2023-06-22T10:02:52;98536.03;;;26.43;58.91
75317;BME280;63913;51.492;10.368;2023-06-22T10:05:17;98540.69;;;26.58;59.02
75317;BME280;63913;51.492;10.368;2023-06-22T10:07:43;98537.59;;;26.69;59.09
75317;BME280;63913;51.492;10.368;2023-06-22T10:10:12;98529.28;;;26.78;56.85
75317;BME280;63913;51.492;10.368;2023-06-22T10:12:55;98540.16;;;26.71;57.78
75317;BME280;63913;51.492;10.368;2023-06-22T10:15:21;98530.75;;;26.65;56.62
75317;BME280;63913;51.492;10.368;2023-06-22T10:17:46;98538.19;;;26.55;56.77
75317;BME280;63913;51.492;10.368;2023-06-22T10:20:14;98531.00;;;26.59;56.08
75317;BME280;63913;51.492;10.368;2023-06-22T10:22:44;98534.19;;;26.67;56.13
75317;BME280;63913;51.492;10.368;2023-06-22T10:25:11;98530.41;;;26.73;56.62
75317;BME280;63913;51.492;10.368;2023-06-22T10:27:37;98514.53;;;26.74;55.17
75317;BME280;63913;51.492;10.368;2023-06-22T10:30:10;98522.44;;;26.74;56.71
75317;BME280;63913;51.492;10.368;2023-06-22T10:32:38;98524.94;;;26.77;56.77
75317;BME280;63913;51.492;10.368;2023-06-22T10:35:03;98515.75;;;26.86;56.29
75317;BME280;63913;51.492;10.368;2023-06-22T10:37:29;98511.78;;;26.98;55.65
75317;BME280;63913;51.492;10.368;2023-06-22T10:39:54;98512.03;;;27.12;55.23
75317;BME280;63913;51.492;10.368;2023-06-22T10:42:20;98504.56;;;27.21;53.28
75317;BME280;63913;51.492;10.368;2023-06-22T10:44:45;98498.91;;;27.29;54.53
75317;BME280;63913;51.492;10.368;2023-06-22T10:47:11;98496.66;;;27.40;53.45
75317;BME280;63913;51.492;10.368;2023-06-22T10:49:39;98500.25;;;27.58;53.48
75317;BME280;63913;51.492;10.368;2023-06-22T10:52:08;98496.38;;;27.65;52.44
75317;BME280;63913;51.492;10.368;2023-06-22T10:54:35;98496.19;;;27.69;52.55
75317;BME280;63913;51.492;10.368;2023-06-22T10:57:02;98491.84;;;27.68;51.74
75317;BME280;63913;51.492;10.368;2023-06-22T10:59:27;98496.25;;;27.68;52.07
75317;BME280;63913;51.492;10.368;2023-06-22T11:01:58;98496.50;;;27.63;53.08
75317;BME280;63913;51.492;10.368;2023-06-22T11:04:24;98499.06;;;27.45;53.23
75317;BME280;63913;51.492;10.368;2023-06-22T11:06:50;98492.81;;;27.47;53.31
75317;BME280;63913;51.492;10.368;2023-06-22T11:09:16;98490.94;;;27.30;52.54
75317;BME280;63913;51.492;10.368;2023-06-22T11:11:51;98483.72;;;27.15;52.43
75317;BME280;63913;51.492;10.368;2023-06-22T11:14:20;98481.53;;;27.05;53.77
75317;BME280;63913;51.492;10.368;2023-06-22T11:16:45;98492.41;;;27.17;53.49
75317;BME280;63913;51.492;10.368;2023-06-22T11:19:11;98479.50;;;27.30;52.53
75317;BME280;63913;51.492;10.368;2023-06-22T11:21:37;98482.78;;;27.35;53.28
75317;BME280;63913;51.492;10.368;2023-06-22T11:24:02;98471.75;;;27.46;54.96
75317;BME280;63913;51.492;10.368;2023-06-22T11:26:28;98464.44;;;27.51;53.59
75317;BME280;63913;51.492;10.368;2023-06-22T11:28:53;98456.75;;;27.46;52.50
75317;BME280;63913;51.492;10.368;2023-06-22T11:31:19;98451.41;;;27.48;53.96
75317;BME280;63913;51.492;10.368;2023-06-22T11:33:44;98440.50;;;27.55;54.75
75317;BME280;63913;51.492;10.368;2023-06-22T11:36:13;98455.72;;;27.49;51.91
75317;BME280;63913;51.492;10.368;2023-06-22T11:38:39;98447.66;;;27.52;52.02
75317;BME280;63913;51.492;10.368;2023-06-22T11:41:05;98440.56;;;27.73;51.27
75317;BME280;63913;51.492;10.368;2023-06-22T11:43:31;98429.31;;;27.86;51.10
75317;BME280;63913;51.492;10.368;2023-06-22T11:45:56;98429.16;;;27.89;51.24
75317;BME280;63913;51.492;10.368;2023-06-22T11:48:24;98427.31;;;28.08;50.57
75317;BME280;63913;51.492;10.368;2023-06-22T11:50:49;98421.38;;;28.22;51.21
75317;BME280;63913;51.492;10.368;2023-06-22T11:53:15;98419.97;;;28.32;50.45
75317;BME280;63913;51.492;10.368;2023-06-22T11:55:42;98411.31;;;28.46;48.88
75317;BME280;63913;51.492;10.368;2023-06-22T11:58:07;98403.94;;;28.53;49.58
75317;BME280;63913;51.492;10.368;2023-06-22T12:00:33;98404.75;;;28.70;50.32
75317;BME280;63913;51.492;10.368;2023-06-22T12:02:59;98398.38;;;28.74;49.66
75317;BME280;63913;51.492;10.368;2023-06-22T12:05:24;98401.44;;;28.67;49.01
75317;BME280;63913;51.492;10.368;2023-06-22T12:07:50;98386.88;;;28.75;50.27
75317;BME280;63913;51.492;10.368;2023-06-22T12:10:16;98390.13;;;28.80;49.33
75317;BME280;63913;51.492;10.368;2023-06-22T12:12:41;98387.88;;;28.90;49.06
75317;BME280;63913;51.492;10.368;2023-06-22T12:15:09;98383.72;;;29.02;49.32
75317;BME280;63913;51.492;10.368;2023-06-22T12:17:35;98385.00;;;29.10;48.54
75317;BME280;63913;51.492;10.368;2023-06-22T12:20:00;98381.69;;;29.22;49.25
75317;BME280;63913;51.492;10.368;2023-06-22T12:22:27;98379.63;;;29.28;49.16
75317;BME280;63913;51.492;10.368;2023-06-22T12:24:52;98366.13;;;29.32;48.85
75317;BME280;63913;51.492;10.368;2023-06-22T12:27:18;98358.19;;;29.32;48.40
75317;BME280;63913;51.492;10.368;2023-06-22T12:29:45;98349.75;;;29.41;49.86
75317;BME280;63913;51.492;10.368;2023-06-22T12:32:11;98337.09;;;29.46;47.90
75317;BME280;63913;51.492;10.368;2023-06-22T12:34:38;98341.09;;;29.53;48.03
75317;BME280;63913;51.492;10.368;2023-06-22T12:37:04;98340.59;;;29.47;47.82
75317;BME280;63913;51.492;10.368;2023-06-22T12:39:31;98335.34;;;29.30;47.97
75317;BME280;63913;51.492;10.368;2023-06-22T12:41:56;98338.00;;;29.14;49.18
75317;BME280;63913;51.492;10.368;2023-06-22T12:44:22;98340.16;;;29.07;48.98
75317;BME280;63913;51.492;10.368;2023-06-22T12:46:47;98327.56;;;29.11;47.68
75317;BME280;63913;51.492;10.368;2023-06-22T12:49:12;98334.56;;;29.12;47.80
75317;BME280;63913;51.492;10.368;2023-06-22T12:51:42;98316.03;;;28.96;50.15
75317;BME280;63913;51.492;10.368;2023-06-22T12:54:07;98308.59;;;28.87;48.89